Ipameri, Brazil
Current Conditions -  °F | °C
As of 6:00 PM on Thursday 23 Oct 2014 (Local Time) from SBUL Reporting Station
Scattered Clouds Scattered Clouds  
Wind Chill: 84°   Ceiling: Unl
Heat Index: 84°   Visibility: 6mi
Dew Point: 55°   Wind: 8mph
Humidity: 37%   Direction: 30°NNE
Pressure: 30"   Gusts: NA
Location:  17.72°S, 48.16°W
Report Text: SBUL 232000Z 03007KT 9999 SCT045 29/13 Q1016
Loading
Personal Weather Stations






























Interactive Weather Map
Tropical Storm Tracking
New forecast layout! Learn more

10-Day Weather Forecast

Advertisements
Track Severe Weather on mobile